Time;durP1;ratioP1;P1;durP2;ratioP2;P2;SDS_P1;SDS_P2;PMS_P1;PMS_P2;Temp;Humidity;BMP_temperature;BMP_pressure;BME280_temperature;BME280_humidity;BME280_pressure;Samples;Min_cycle;Max_cycle;Signal;HPM_P1;HPM_P2
2021/05/22 00:01:40;;;;;;;;;0.00;0.00;;;;;;;;5045487;28;9901;-80
2021/05/22 00:04:09;;;;;;;;;0.00;0.00;;;;;;;;5042999;28;10044;-79
2021/05/22 00:06:37;;;;;;;;;0.25;0.25;;;;;;;;5046395;28;10023;-80
2021/05/22 00:09:04;;;;;;;;;2.00;1.00;;;;;;;;5046368;28;9989;-81
2021/05/22 00:11:31;;;;;;;;;0.50;0.00;;;;;;;;5028792;28;10041;-80
2021/05/22 00:13:58;;;;;;;;;2.25;0.00;;;;;;;;5043524;28;10188;-80
2021/05/22 00:16:25;;;;;;;;;1.50;0.00;;;;;;;;5026993;28;10050;-80
2021/05/22 00:18:52;;;;;;;;;0.00;0.00;;;;;;;;5029180;28;10008;-80
2021/05/22 00:21:19;;;;;;;;;1.00;0.00;;;;;;;;5044594;28;10113;-81
2021/05/22 00:23:47;;;;;;;;;1.00;1.00;;;;;;;;5045457;28;10120;-80
2021/05/22 00:26:14;;;;;;;;;0.25;0.00;;;;;;;;5044304;28;10043;-80
2021/05/22 00:28:41;;;;;;;;;0.00;0.00;;;;;;;;5044806;28;10158;-79
2021/05/22 00:31:08;;;;;;;;;0.00;0.00;;;;;;;;5041658;28;9939;-80
2021/05/22 00:33:35;;;;;;;;;1.50;0.00;;;;;;;;5042267;28;10107;-79
2021/05/22 00:36:02;;;;;;;;;0.50;0.50;;;;;;;;5022917;28;10167;-80
2021/05/22 00:38:29;;;;;;;;;0.00;0.00;;;;;;;;5044673;28;10243;-81
2021/05/22 00:40:57;;;;;;;;;0.00;0.00;;;;;;;;5045143;28;10089;-80
2021/05/22 00:43:24;;;;;;;;;0.75;0.75;;;;;;;;5043718;28;10153;-80
2021/05/22 00:45:54;;;;;;;;;0.00;0.00;;;;;;;;5026001;28;10229;-80
2021/05/22 00:48:21;;;;;;;;;1.00;1.00;;;;;;;;5026334;28;10992;-80
2021/05/22 00:50:50;;;;;;;;;0.00;0.00;;;;;;;;5042717;28;10253;-78
2021/05/22 00:53:18;;;;;;;;;1.75;0.50;;;;;;;;5045776;28;10146;-79
2021/05/22 00:55:46;;;;;;;;;0.00;0.00;;;;;;;;5044196;28;10696;-79
2021/05/22 00:58:14;;;;;;;;;0.00;0.00;;;;;;;;5044908;28;10232;-79
2021/05/22 01:00:43;;;;;;;;;1.00;1.00;;;;;;;;5010037;28;9903;-79
2021/05/22 01:03:17;;;;;;;;;2.00;0.00;;;;;;;;5045818;28;10144;-78
2021/05/22 01:05:45;;;;;;;;;1.00;1.00;;;;;;;;5045281;28;9923;-79
2021/05/22 01:08:15;;;;;;;;;0.25;0.25;;;;;;;;5045007;28;9987;-79
2021/05/22 01:10:43;;;;;;;;;1.00;0.00;;;;;;;;5035394;28;10161;-79
2021/05/22 01:13:13;;;;;;;;;0.00;0.00;;;;;;;;5042536;28;9862;-79
2021/05/22 01:15:42;;;;;;;;;1.00;1.00;;;;;;;;5044072;28;10776;-79
2021/05/22 01:18:10;;;;;;;;;2.00;0.00;;;;;;;;5046047;28;10174;-79
2021/05/22 01:20:40;;;;;;;;;1.00;1.00;;;;;;;;5044347;28;9937;-80
2021/05/22 01:23:11;;;;;;;;;0.00;0.00;;;;;;;;5047545;28;10182;-79
2021/05/22 01:25:40;;;;;;;;;1.00;1.00;;;;;;;;5045860;28;9929;-79
2021/05/22 01:28:10;;;;;;;;;1.00;1.00;;;;;;;;5043618;28;10061;-79
2021/05/22 01:30:38;;;;;;;;;3.00;1.00;;;;;;;;5047175;28;9980;-79
2021/05/22 01:33:06;;;;;;;;;3.50;1.00;;;;;;;;5061725;28;10023;-79
2021/05/22 01:35:33;;;;;;;;;3.00;0.25;;;;;;;;5057854;28;10064;-80
2021/05/22 01:38:00;;;;;;;;;1.00;1.00;;;;;;;;5064563;28;10070;-80
2021/05/22 01:40:27;;;;;;;;;1.00;0.00;;;;;;;;5063473;28;10025;-80
2021/05/22 01:42:55;;;;;;;;;1.00;1.00;;;;;;;;5064341;28;10140;-80
2021/05/22 01:45:27;;;;;;;;;0.00;0.00;;;;;;;;5062139;28;9936;-80
2021/05/22 01:47:56;;;;;;;;;0.00;0.00;;;;;;;;5063233;28;9959;-80
2021/05/22 01:50:24;;;;;;;;;0.00;0.00;;;;;;;;5064488;28;10070;-80
2021/05/22 01:52:54;;;;;;;;;2.75;1.00;;;;;;;;5062135;28;9919;-80
2021/05/22 01:55:21;;;;;;;;;2.00;0.50;;;;;;;;5065011;28;10099;-80
2021/05/22 01:57:48;;;;;;;;;0.00;0.00;;;;;;;;5061560;28;9932;-79
2021/05/22 02:00:18;;;;;;;;;2.00;0.25;;;;;;;;5061821;28;10815;-79
2021/05/22 02:02:51;;;;;;;;;0.00;0.00;;;;;;;;5064035;28;10110;-79
2021/05/22 02:05:20;;;;;;;;;0.00;0.00;;;;;;;;5062788;28;9918;-79
2021/05/22 02:07:48;;;;;;;;;3.00;1.00;;;;;;;;5064020;28;10065;-79
2021/05/22 02:10:15;;;;;;;;;1.00;1.00;;;;;;;;5062062;28;10144;-80
2021/05/22 02:12:43;;;;;;;;;0.50;0.50;;;;;;;;5064364;28;9864;-79
2021/05/22 02:15:12;;;;;;;;;0.50;0.50;;;;;;;;5062610;28;10035;-81
2021/05/22 02:17:41;;;;;;;;;1.75;0.00;;;;;;;;5063156;28;9940;-80
2021/05/22 02:20:11;;;;;;;;;0.00;0.00;;;;;;;;5063080;28;10145;-78
2021/05/22 02:22:39;;;;;;;;;0.00;0.00;;;;;;;;5063263;28;10161;-80
2021/05/22 02:25:07;;;;;;;;;0.00;0.00;;;;;;;;5063331;28;9838;-80
2021/05/22 02:27:36;;;;;;;;;1.25;0.00;;;;;;;;5050516;28;11071;-81
2021/05/22 02:30:07;;;;;;;;;0.75;0.75;;;;;;;;5063489;28;10193;-81
2021/05/22 02:32:34;;;;;;;;;1.00;1.00;;;;;;;;5062782;28;9928;-81
2021/05/22 02:35:03;;;;;;;;;2.00;0.00;;;;;;;;5063578;28;10114;-80
2021/05/22 02:37:32;;;;;;;;;2.50;1.00;;;;;;;;5063673;28;9900;-80
2021/05/22 02:40:01;;;;;;;;;1.25;1.25;;;;;;;;5062305;28;10821;-82
2021/05/22 02:42:31;;;;;;;;;1.50;1.00;;;;;;;;5062650;28;10069;-80
2021/05/22 02:45:00;;;;;;;;;0.00;0.00;;;;;;;;5062141;28;10255;-80
2021/05/22 02:47:28;;;;;;;;;0.00;0.00;;;;;;;;5064292;28;10563;-79
2021/05/22 02:49:59;;;;;;;;;0.75;0.75;;;;;;;;5058317;28;9946;-80
2021/05/22 02:52:27;;;;;;;;;6.00;0.00;;;;;;;;5060447;28;9922;-80
2021/05/22 02:54:55;;;;;;;;;0.00;0.00;;;;;;;;5062282;28;10073;-80
2021/05/22 02:57:23;;;;;;;;;0.25;0.25;;;;;;;;5063104;28;10126;-80
2021/05/22 02:59:51;;;;;;;;;3.50;1.00;;;;;;;;5062513;28;10029;-79
2021/05/22 03:02:18;;;;;;;;;0.00;0.00;;;;;;;;5043669;28;9867;-80
2021/05/22 03:04:47;;;;;;;;;1.00;1.00;;;;;;;;5064291;28;10136;-79
2021/05/22 03:07:15;;;;;;;;;0.00;0.00;;;;;;;;5060417;28;10947;-79
2021/05/22 03:09:43;;;;;;;;;2.00;1.00;;;;;;;;5076686;28;10034;-80
2021/05/22 03:12:11;;;;;;;;;3.50;0.50;;;;;;;;5063210;28;10017;-80
2021/05/22 03:14:38;;;;;;;;;1.00;1.00;;;;;;;;5067113;28;10156;-80
2021/05/22 03:17:05;;;;;;;;;1.00;1.00;;;;;;;;5067236;28;9941;-80
2021/05/22 03:19:32;;;;;;;;;2.00;1.50;;;;;;;;5067803;28;9915;-79
2021/05/22 03:21:59;;;;;;;;;2.75;0.00;;;;;;;;5068484;28;9969;-79
2021/05/22 03:24:26;;;;;;;;;4.50;1.25;;;;;;;;5068777;28;9933;-80
2021/05/22 03:26:54;;;;;;;;;3.75;1.00;;;;;;;;5049825;28;10127;-80
2021/05/22 03:29:21;;;;;;;;;0.00;0.00;;;;;;;;5065551;28;10024;-81
2021/05/22 03:31:48;;;;;;;;;1.00;1.00;;;;;;;;5065648;28;9827;-80
2021/05/22 03:34:15;;;;;;;;;0.25;0.00;;;;;;;;5065989;28;10858;-80
2021/05/22 03:36:42;;;;;;;;;5.00;0.00;;;;;;;;5056566;28;9959;-80
2021/05/22 03:39:09;;;;;;;;;1.00;1.00;;;;;;;;5072575;28;9829;-80
2021/05/22 03:41:36;;;;;;;;;0.00;0.00;;;;;;;;5064480;28;9760;-80
2021/05/22 03:44:04;;;;;;;;;0.00;0.00;;;;;;;;5067146;28;9834;-80
2021/05/22 03:46:31;;;;;;;;;1.75;1.75;;;;;;;;5064642;28;9840;-79
2021/05/22 03:48:58;;;;;;;;;2.75;1.00;;;;;;;;5066513;28;9835;-80
2021/05/22 03:51:25;;;;;;;;;1.00;1.00;;;;;;;;5065258;28;9820;-79
2021/05/22 03:53:52;;;;;;;;;1.50;1.00;;;;;;;;5072040;28;9872;-79
2021/05/22 03:56:20;;;;;;;;;0.00;0.00;;;;;;;;5048334;28;9777;-79
2021/05/22 03:58:46;;;;;;;;;0.75;0.75;;;;;;;;5046936;28;9772;-78
2021/05/22 04:01:14;;;;;;;;;0.00;0.00;;;;;;;;5065114;28;9922;-79
2021/05/22 04:03:41;;;;;;;;;1.75;0.50;;;;;;;;5050070;28;10001;-78
2021/05/22 04:06:08;;;;;;;;;0.25;0.25;;;;;;;;5065904;28;10474;-79
2021/05/22 04:08:35;;;;;;;;;0.00;0.00;;;;;;;;5064609;28;10943;-78
2021/05/22 04:11:03;;;;;;;;;1.00;1.00;;;;;;;;5067121;28;9911;-78
2021/05/22 04:13:30;;;;;;;;;1.00;1.00;;;;;;;;5069714;28;10667;-78
2021/05/22 04:15:57;;;;;;;;;1.00;1.00;;;;;;;;5061873;28;10091;-79
2021/05/22 04:18:25;;;;;;;;;0.50;0.50;;;;;;;;5065687;28;10512;-78
2021/05/22 04:20:52;;;;;;;;;0.75;0.75;;;;;;;;5064351;28;9915;-78
2021/05/22 04:23:19;;;;;;;;;0.00;0.00;;;;;;;;5068157;28;10538;-79
2021/05/22 04:25:45;;;;;;;;;1.00;1.00;;;;;;;;5047126;28;9843;-79
2021/05/22 04:28:12;;;;;;;;;0.50;0.25;;;;;;;;5071559;28;9759;-78
2021/05/22 04:30:40;;;;;;;;;1.00;0.00;;;;;;;;5063461;28;9787;-79
2021/05/22 04:33:06;;;;;;;;;0.00;0.00;;;;;;;;5064904;28;9890;-79
2021/05/22 04:35:34;;;;;;;;;0.00;0.00;;;;;;;;5065696;28;9790;-79
2021/05/22 04:38:01;;;;;;;;;1.00;1.00;;;;;;;;5065177;28;9918;-80
2021/05/22 04:40:28;;;;;;;;;1.00;1.00;;;;;;;;5065326;28;9746;-79
2021/05/22 04:42:55;;;;;;;;;0.00;0.00;;;;;;;;5064099;28;9767;-80
2021/05/22 04:45:22;;;;;;;;;2.25;1.00;;;;;;;;5065270;28;9679;-80
2021/05/22 04:47:49;;;;;;;;;0.50;0.25;;;;;;;;5062707;28;9908;-80
2021/05/22 04:50:17;;;;;;;;;1.00;0.00;;;;;;;;5064788;28;9923;-81
2021/05/22 04:52:45;;;;;;;;;0.25;0.25;;;;;;;;5069865;28;9775;-81
2021/05/22 04:55:15;;;;;;;;;1.00;1.00;;;;;;;;5047170;28;9671;-79
2021/05/22 04:57:41;;;;;;;;;2.00;0.50;;;;;;;;5063913;28;9789;-78
2021/05/22 05:00:09;;;;;;;;;0.00;0.00;;;;;;;;5062926;28;9796;-80
2021/05/22 05:02:37;;;;;;;;;2.25;1.00;;;;;;;;5064360;28;9893;-78
2021/05/22 05:05:04;;;;;;;;;0.00;0.00;;;;;;;;5063178;28;9964;-79
2021/05/22 05:07:31;;;;;;;;;0.00;0.00;;;;;;;;5066548;28;9870;-79
2021/05/22 05:09:59;;;;;;;;;3.00;1.00;;;;;;;;5063821;28;10724;-82
2021/05/22 05:12:26;;;;;;;;;3.50;2.00;;;;;;;;5063430;28;9926;-73
2021/05/22 05:14:53;;;;;;;;;1.00;1.00;;;;;;;;5069086;28;9919;-75
2021/05/22 05:17:20;;;;;;;;;0.00;0.00;;;;;;;;5063829;28;9973;-76
2021/05/22 05:19:47;;;;;;;;;1.00;1.00;;;;;;;;5067727;28;10607;-74
2021/05/22 05:22:14;;;;;;;;;1.00;0.00;;;;;;;;5046030;28;9857;-74
2021/05/22 05:24:41;;;;;;;;;0.75;0.75;;;;;;;;5064780;28;10041;-74
2021/05/22 05:27:11;;;;;;;;;2.25;1.00;;;;;;;;5063176;28;9844;-74
2021/05/22 05:29:39;;;;;;;;;2.00;0.50;;;;;;;;5064350;28;9879;-77
2021/05/22 05:32:08;;;;;;;;;7.00;1.00;;;;;;;;5069975;28;9784;-76
2021/05/22 05:34:35;;;;;;;;;0.00;0.00;;;;;;;;5063338;28;9880;-75
2021/05/22 05:37:02;;;;;;;;;0.00;0.00;;;;;;;;5064119;28;9621;-75
2021/05/22 05:39:29;;;;;;;;;1.00;1.00;;;;;;;;5064541;28;9621;-81
2021/05/22 05:41:55;;;;;;;;;2.25;1.00;;;;;;;;5046586;28;9713;-84
2021/05/22 05:44:24;;;;;;;;;3.00;0.00;;;;;;;;5062663;28;10458;-74
2021/05/22 05:46:50;;;;;;;;;0.50;0.50;;;;;;;;5063494;28;9629;-74
2021/05/22 05:49:17;;;;;;;;;3.00;0.00;;;;;;;;5062031;28;9774;-74
2021/05/22 05:51:44;;;;;;;;;0.75;0.75;;;;;;;;5065689;28;9844;-74
2021/05/22 05:54:11;;;;;;;;;1.00;1.00;;;;;;;;5063246;28;9693;-73
2021/05/22 05:56:38;;;;;;;;;0.75;0.75;;;;;;;;5062926;28;9719;-74
2021/05/22 05:59:05;;;;;;;;;2.00;0.00;;;;;;;;5072342;28;9776;-73
2021/05/22 06:01:33;;;;;;;;;1.00;1.00;;;;;;;;5045411;28;9751;-74
2021/05/22 06:04:00;;;;;;;;;2.00;0.25;;;;;;;;5065330;28;9764;-74
2021/05/22 06:06:27;;;;;;;;;3.25;0.00;;;;;;;;5064613;28;9617;-74
2021/05/22 06:08:54;;;;;;;;;1.25;0.75;;;;;;;;5064028;28;9665;-75
2021/05/22 06:11:23;;;;;;;;;2.00;1.00;;;;;;;;5062799;28;9654;-74
2021/05/22 06:13:52;;;;;;;;;1.00;1.00;;;;;;;;5062924;28;9777;-73
2021/05/22 06:16:25;;;;;;;;;0.00;0.00;;;;;;;;5063140;28;10262;-75
2021/05/22 06:18:53;;;;;;;;;0.50;0.50;;;;;;;;5062945;28;9539;-74
2021/05/22 06:21:21;;;;;;;;;2.00;0.00;;;;;;;;5068962;28;10379;-74
2021/05/22 06:23:48;;;;;;;;;0.00;0.00;;;;;;;;5064533;28;9667;-76
2021/05/22 06:26:15;;;;;;;;;0.75;0.75;;;;;;;;5062261;28;9545;-74
2021/05/22 06:28:42;;;;;;;;;1.00;1.00;;;;;;;;5064616;28;9563;-74
2021/05/22 06:31:09;;;;;;;;;1.00;1.00;;;;;;;;5067917;28;9929;-74
2021/05/22 06:33:36;;;;;;;;;3.75;1.00;;;;;;;;5066984;28;9407;-73
2021/05/22 06:36:05;;;;;;;;;1.33;1.00;;;;;;;;5059108;28;9440;-73
2021/05/22 06:38:32;;;;;;;;;1.00;1.00;;;;;;;;5065856;28;9333;-73
2021/05/22 06:40:58;;;;;;;;;3.50;2.00;;;;;;;;5061585;28;9461;-73
2021/05/22 06:43:25;;;;;;;;;2.00;0.67;;;;;;;;5072022;28;9669;-73
2021/05/22 06:45:59;;;;;;;;;0.00;0.00;;;;;;;;5045118;28;10221;-72
2021/05/22 06:48:27;;;;;;;;;0.67;0.67;;;;;;;;5067995;28;9399;-71
2021/05/22 06:50:54;;;;;;;;;1.00;1.00;;;;;;;;5067623;28;9615;-71
2021/05/22 06:53:22;;;;;;;;;1.00;1.00;;;;;;;;5044549;28;9416;-72
2021/05/22 06:55:49;;;;;;;;;2.00;0.33;;;;;;;;5062466;28;9318;-72
2021/05/22 06:58:18;;;;;;;;;2.00;2.00;;;;;;;;5061204;28;9425;-73
2021/05/22 07:00:44;;;;;;;;;0.00;0.00;;;;;;;;5062050;28;9345;-71
2021/05/22 07:03:12;;;;;;;;;0.00;0.00;;;;;;;;5063192;28;9444;-71
2021/05/22 07:05:39;;;;;;;;;4.00;1.00;;;;;;;;5061111;28;9340;-71
2021/05/22 07:08:06;;;;;;;;;0.00;0.00;;;;;;;;5062974;28;9481;-72
2021/05/22 07:10:35;;;;;;;;;1.00;1.00;;;;;;;;5056877;28;9484;-73
2021/05/22 07:13:02;;;;;;;;;1.00;1.00;;;;;;;;5062169;28;9363;-75
2021/05/22 07:15:29;;;;;;;;;1.00;1.00;;;;;;;;5065570;28;9363;-74
2021/05/22 07:17:56;;;;;;;;;4.25;1.25;;;;;;;;5069559;28;9324;-74
2021/05/22 07:20:24;;;;;;;;;1.00;1.00;;;;;;;;5062158;28;9561;-74
2021/05/22 07:22:51;;;;;;;;;0.00;0.00;;;;;;;;5063838;28;9395;-76
2021/05/22 07:25:18;;;;;;;;;1.00;1.00;;;;;;;;5067369;28;9474;-75
2021/05/22 07:27:48;;;;;;;;;1.33;1.00;;;;;;;;5041913;28;10200;-76
2021/05/22 07:30:17;;;;;;;;;1.00;1.00;;;;;;;;5053660;28;9477;-75
2021/05/22 07:32:45;;;;;;;;;1.00;1.00;;;;;;;;5059394;28;10381;-75
2021/05/22 07:35:14;;;;;;;;;4.00;0.00;;;;;;;;5062796;28;9397;-74
2021/05/22 07:37:41;;;;;;;;;0.75;0.75;;;;;;;;5053359;28;9418;-75
2021/05/22 07:40:10;;;;;;;;;0.00;0.00;;;;;;;;5062908;28;9520;-75
2021/05/22 07:42:38;;;;;;;;;0.67;0.00;;;;;;;;5044762;28;9330;-74
2021/05/22 07:45:08;;;;;;;;;3.00;1.00;;;;;;;;5042725;28;9343;-75
2021/05/22 07:47:35;;;;;;;;;2.00;0.00;;;;;;;;5062841;28;9264;-76
2021/05/22 07:50:03;;;;;;;;;3.00;1.67;;;;;;;;5059485;28;9200;-76
2021/05/22 07:52:30;;;;;;;;;0.00;0.00;;;;;;;;5061256;28;9434;-74
2021/05/22 07:54:56;;;;;;;;;1.00;1.00;;;;;;;;5060858;28;9085;-76
2021/05/22 07:57:23;;;;;;;;;1.00;1.00;;;;;;;;5062210;28;9257;-74
2021/05/22 07:59:50;;;;;;;;;0.33;0.33;;;;;;;;5064407;28;9442;-74
2021/05/22 08:02:18;;;;;;;;;1.00;1.00;;;;;;;;5064910;28;9458;-74
2021/05/22 08:04:45;;;;;;;;;0.00;0.00;;;;;;;;5065060;28;9138;-75
2021/05/22 08:07:13;;;;;;;;;1.33;1.33;;;;;;;;5065601;28;9094;-74
2021/05/22 08:09:40;;;;;;;;;1.00;1.00;;;;;;;;5047344;28;9211;-75
2021/05/22 08:12:07;;;;;;;;;3.00;1.00;;;;;;;;5062431;28;9180;-75
2021/05/22 08:14:34;;;;;;;;;1.33;1.33;;;;;;;;5046505;28;9110;-74
2021/05/22 08:17:01;;;;;;;;;1.33;1.00;;;;;;;;5063698;28;8984;-75
2021/05/22 08:19:29;;;;;;;;;1.33;1.33;;;;;;;;5064667;28;9126;-73
2021/05/22 08:21:56;;;;;;;;;0.75;0.00;;;;;;;;5064565;28;9011;-75
2021/05/22 08:24:23;;;;;;;;;1.33;1.33;;;;;;;;5046921;28;8907;-74
2021/05/22 08:26:50;;;;;;;;;0.00;0.00;;;;;;;;5065467;28;9045;-76
2021/05/22 08:29:17;;;;;;;;;1.33;1.33;;;;;;;;5062992;28;9056;-74
2021/05/22 08:31:43;;;;;;;;;4.00;1.00;;;;;;;;5063106;28;9040;-74
2021/05/22 08:34:10;;;;;;;;;4.00;1.00;;;;;;;;5064974;28;8948;-74
2021/05/22 08:36:38;;;;;;;;;3.67;1.00;;;;;;;;5047823;28;9813;-74
2021/05/22 08:39:05;;;;;;;;;4.00;1.00;;;;;;;;5065066;28;9243;-75
2021/05/22 08:41:36;;;;;;;;;1.00;1.00;;;;;;;;5065225;28;9074;-74
2021/05/22 08:44:04;;;;;;;;;1.00;1.00;;;;;;;;5065049;28;9842;-74
2021/05/22 08:46:32;;;;;;;;;1.00;1.00;;;;;;;;5064438;28;9022;-74
2021/05/22 08:48:59;;;;;;;;;1.00;1.00;;;;;;;;5066374;28;8924;-74
2021/05/22 08:51:26;;;;;;;;;3.00;1.00;;;;;;;;5063413;28;9037;-74
2021/05/22 08:53:54;;;;;;;;;1.33;1.00;;;;;;;;5065763;28;8878;-74
2021/05/22 08:56:21;;;;;;;;;2.25;0.75;;;;;;;;5068369;28;9019;-74
2021/05/22 08:58:48;;;;;;;;;1.00;1.00;;;;;;;;5065751;28;8888;-74
2021/05/22 09:01:15;;;;;;;;;1.00;1.00;;;;;;;;5046681;28;8845;-74
2021/05/22 09:03:44;;;;;;;;;0.67;0.67;;;;;;;;5064429;28;8982;-74
2021/05/22 09:06:11;;;;;;;;;0.25;0.25;;;;;;;;5064782;28;9059;-74
2021/05/22 09:08:38;;;;;;;;;2.75;1.00;;;;;;;;5063791;28;8865;-74
2021/05/22 09:11:06;;;;;;;;;0.75;0.75;;;;;;;;5056200;28;8859;-74
2021/05/22 09:13:35;;;;;;;;;2.00;1.00;;;;;;;;5063960;28;8900;-74
2021/05/22 09:16:05;;;;;;;;;0.50;0.00;;;;;;;;5064379;28;8862;-74
2021/05/22 09:18:35;;;;;;;;;2.25;0.00;;;;;;;;5064981;28;8947;-74
2021/05/22 09:21:04;;;;;;;;;5.25;0.75;;;;;;;;5064128;28;9317;-74
2021/05/22 09:23:32;;;;;;;;;1.00;1.00;;;;;;;;5065642;28;8853;-74
2021/05/22 09:26:01;;;;;;;;;1.00;1.00;;;;;;;;5058166;28;8971;-74
2021/05/22 09:28:35;;;;;;;;;1.25;1.25;;;;;;;;5057655;28;8867;-74
2021/05/22 09:31:03;;;;;;;;;0.25;0.25;;;;;;;;5062530;28;8814;-74
2021/05/22 09:33:32;;;;;;;;;1.25;0.75;;;;;;;;5046843;28;8866;-73
2021/05/22 09:36:00;;;;;;;;;2.00;0.50;;;;;;;;5069414;28;8848;-75
2021/05/22 09:38:34;;;;;;;;;1.00;1.00;;;;;;;;5056172;28;8880;-72
2021/05/22 09:41:12;;;;;;;;;2.00;1.00;;;;;;;;5064491;28;8858;-73
2021/05/22 09:43:40;;;;;;;;;2.00;0.75;;;;;;;;5060704;28;8870;-73
2021/05/22 09:46:09;;;;;;;;;2.00;0.00;;;;;;;;5062869;28;9486;-75
2021/05/22 09:48:37;;;;;;;;;0.00;0.00;;;;;;;;5061441;28;9619;-74
2021/05/22 09:51:05;;;;;;;;;0.25;0.25;;;;;;;;5061739;28;9497;-73
2021/05/22 09:53:33;;;;;;;;;1.00;1.00;;;;;;;;5065413;28;8879;-74
2021/05/22 09:56:15;;;;;;;;;1.00;1.00;;;;;;;;5062501;28;8900;-74
2021/05/22 09:58:45;;;;;;;;;3.00;1.00;;;;;;;;5071059;28;8854;-73
2021/05/22 10:01:13;;;;;;;;;2.00;1.00;;;;;;;;5061550;28;9711;-72
2021/05/22 10:03:40;;;;;;;;;0.50;0.50;;;;;;;;5063174;28;8854;-72
2021/05/22 10:06:08;;;;;;;;;0.00;0.00;;;;;;;;5063186;28;9031;-73
2021/05/22 10:08:35;;;;;;;;;1.00;1.00;;;;;;;;5065034;28;8830;-73
2021/05/22 10:11:02;;;;;;;;;1.00;1.00;;;;;;;;5048243;28;8886;-73
2021/05/22 10:13:30;;;;;;;;;2.25;1.00;;;;;;;;5061949;28;8861;-74
2021/05/22 10:15:59;;;;;;;;;0.75;0.50;;;;;;;;5063353;28;8834;-71
2021/05/22 10:18:27;;;;;;;;;1.50;0.00;;;;;;;;5063177;28;8976;-73
2021/05/22 10:20:55;;;;;;;;;0.75;0.25;;;;;;;;5061318;28;9011;-72
2021/05/22 10:23:23;;;;;;;;;2.00;1.00;;;;;;;;5062454;28;8848;-72
2021/05/22 10:25:50;;;;;;;;;3.00;1.00;;;;;;;;5067154;28;8867;-72
2021/05/22 10:28:17;;;;;;;;;2.00;0.25;;;;;;;;5063711;28;8842;-74
2021/05/22 10:30:44;;;;;;;;;0.50;0.00;;;;;;;;5041767;28;8964;-72
2021/05/22 10:33:14;;;;;;;;;1.00;1.00;;;;;;;;5062890;28;8850;-73
2021/05/22 10:35:43;;;;;;;;;2.75;1.00;;;;;;;;5060685;28;8977;-73
2021/05/22 10:38:10;;;;;;;;;1.00;0.00;;;;;;;;5064036;28;8850;-73
2021/05/22 10:40:45;;;;;;;;;0.75;0.00;;;;;;;;5061347;28;8980;-73
2021/05/22 10:43:13;;;;;;;;;0.00;0.00;;;;;;;;5064416;28;8862;-72
2021/05/22 10:45:42;;;;;;;;;1.00;1.00;;;;;;;;5064811;28;9001;-73
2021/05/22 10:48:49;;;;;;;;;0.00;0.00;;;;;;;;5061230;28;8874;-73
2021/05/22 10:51:28;;;;;;;;;0.00;0.00;;;;;;;;5060542;28;9707;-73
2021/05/22 10:53:56;;;;;;;;;0.00;0.00;;;;;;;;5059867;28;8858;-74
2021/05/22 10:56:23;;;;;;;;;0.25;0.25;;;;;;;;5063539;28;8854;-73
2021/05/22 10:59:15;;;;;;;;;1.00;1.00;;;;;;;;5043698;28;8860;-73
2021/05/22 11:01:46;;;;;;;;;0.00;0.00;;;;;;;;5061625;28;9583;-74
2021/05/22 11:04:36;;;;;;;;;0.00;0.00;;;;;;;;5064958;28;8889;-74
2021/05/22 11:07:19;;;;;;;;;0.50;0.00;;;;;;;;5061616;28;8912;-74
2021/05/22 11:09:52;;;;;;;;;1.00;1.00;;;;;;;;5061485;28;9734;-73
2021/05/22 11:12:42;;;;;;;;;1.00;1.00;;;;;;;;5063525;28;8989;-74
2021/05/22 11:15:43;;;;;;;;;0.00;0.00;;;;;;;;5058630;28;8853;-73
2021/05/22 11:18:10;;;;;;;;;1.00;1.00;;;;;;;;5055960;28;9018;-74
2021/05/22 11:20:40;;;;;;;;;0.50;0.50;;;;;;;;5061926;28;8842;-73
2021/05/22 11:23:07;;;;;;;;;0.00;0.00;;;;;;;;5058877;28;9050;-74
2021/05/22 11:25:50;;;;;;;;;1.25;1.00;;;;;;;;5060668;28;8974;-74
2021/05/22 11:28:19;;;;;;;;;0.00;0.00;;;;;;;;5061090;28;8990;-78
2021/05/22 11:30:54;;;;;;;;;0.00;0.00;;;;;;;;5036633;28;8818;-73
2021/05/22 11:33:29;;;;;;;;;1.00;1.00;;;;;;;;5062889;28;9569;-73
2021/05/22 11:36:00;;;;;;;;;0.50;0.50;;;;;;;;5062690;28;8935;-72
2021/05/22 11:38:37;;;;;;;;;0.00;0.00;;;;;;;;5065531;28;8846;-73
2021/05/22 11:41:10;;;;;;;;;0.00;0.00;;;;;;;;5063824;28;8861;-73
2021/05/22 11:43:40;;;;;;;;;1.00;0.00;;;;;;;;5061333;28;8866;-72
2021/05/22 11:46:08;;;;;;;;;0.00;0.00;;;;;;;;5069664;28;9659;-73
2021/05/22 11:48:37;;;;;;;;;0.00;0.00;;;;;;;;5065984;28;8918;-72
2021/05/22 11:51:15;;;;;;;;;0.25;0.25;;;;;;;;5047124;28;8931;-74
2021/05/22 11:53:43;;;;;;;;;0.00;0.00;;;;;;;;5063792;28;8886;-73
2021/05/22 11:56:13;;;;;;;;;2.00;0.25;;;;;;;;5067637;28;9747;-73
2021/05/22 11:58:42;;;;;;;;;0.00;0.00;;;;;;;;5064838;28;8858;-73
2021/05/22 12:01:14;;;;;;;;;0.50;0.00;;;;;;;;5055197;28;8807;-73
2021/05/22 12:03:42;;;;;;;;;0.00;0.00;;;;;;;;5041606;28;8879;-71
2021/05/22 12:06:15;;;;;;;;;0.00;0.00;;;;;;;;5041818;28;8849;-71
2021/05/22 12:08:42;;;;;;;;;0.00;0.00;;;;;;;;5039389;28;8835;-71
2021/05/22 12:11:11;;;;;;;;;1.00;0.00;;;;;;;;5042898;28;8867;-72
2021/05/22 12:13:54;;;;;;;;;0.75;0.00;;;;;;;;5046079;28;8847;-72
2021/05/22 12:16:22;;;;;;;;;1.00;1.00;;;;;;;;5042424;28;8873;-74
2021/05/22 12:18:49;;;;;;;;;0.25;0.25;;;;;;;;5040754;28;8847;-74
2021/05/22 12:21:26;;;;;;;;;1.00;0.00;;;;;;;;5038566;28;9053;-75
2021/05/22 12:23:53;;;;;;;;;0.00;0.00;;;;;;;;5040510;28;9011;-74
2021/05/22 12:26:21;;;;;;;;;0.00;0.00;;;;;;;;5043442;28;8863;-75
2021/05/22 12:28:48;;;;;;;;;1.00;1.00;;;;;;;;5041347;28;8890;-74
2021/05/22 12:31:18;;;;;;;;;0.00;0.00;;;;;;;;5042100;28;8795;-74
2021/05/22 12:33:59;;;;;;;;;0.50;0.50;;;;;;;;5040616;28;8875;-74
2021/05/22 12:36:28;;;;;;;;;0.00;0.00;;;;;;;;5040255;28;8854;-74
2021/05/22 12:38:56;;;;;;;;;3.00;0.00;;;;;;;;5041568;28;8851;-73
2021/05/22 12:41:34;;;;;;;;;0.00;0.00;;;;;;;;5043734;28;8862;-74
2021/05/22 12:44:01;;;;;;;;;1.50;0.00;;;;;;;;5040330;28;9041;-75
2021/05/22 12:46:31;;;;;;;;;0.00;0.00;;;;;;;;5042596;28;8850;-73
2021/05/22 12:49:09;;;;;;;;;2.00;0.00;;;;;;;;5041657;28;8969;-74
2021/05/22 12:51:38;;;;;;;;;3.00;0.00;;;;;;;;5059399;28;8879;-74
2021/05/22 12:54:25;;;;;;;;;0.00;0.00;;;;;;;;5041742;28;8863;-74
2021/05/22 12:57:09;;;;;;;;;0.00;0.00;;;;;;;;5041691;28;8858;-74
2021/05/22 12:59:37;;;;;;;;;0.00;0.00;;;;;;;;5040310;28;9013;-74
2021/05/22 13:02:24;;;;;;;;;0.00;0.00;;;;;;;;5059008;28;9404;-74
2021/05/22 13:04:53;;;;;;;;;0.00;0.00;;;;;;;;5059942;28;9647;-73
2021/05/22 13:07:26;;;;;;;;;0.00;0.00;;;;;;;;5062412;28;8866;-74
2021/05/22 13:09:59;;;;;;;;;0.80;0.80;;;;;;;;5062958;28;8834;-73
2021/05/22 13:12:28;;;;;;;;;1.00;0.00;;;;;;;;5061988;28;8869;-73
2021/05/22 13:14:58;;;;;;;;;1.00;1.00;;;;;;;;5062444;28;8846;-74
2021/05/22 13:17:25;;;;;;;;;2.20;0.00;;;;;;;;5062441;28;8846;-74
2021/05/22 13:19:53;;;;;;;;;0.00;0.00;;;;;;;;5064003;28;8916;-74
2021/05/22 13:22:27;;;;;;;;;0.00;0.00;;;;;;;;5059865;28;8862;-73
2021/05/22 13:25:03;;;;;;;;;0.00;0.00;;;;;;;;5063388;28;9846;-74
2021/05/22 13:27:30;;;;;;;;;0.40;0.00;;;;;;;;5053653;28;8841;-74
2021/05/22 13:29:59;;;;;;;;;0.00;0.00;;;;;;;;5045613;28;9613;-73
2021/05/22 13:32:26;;;;;;;;;0.00;0.00;;;;;;;;5063138;28;8778;-74
2021/05/22 13:34:54;;;;;;;;;0.00;0.00;;;;;;;;5046549;28;8858;-74
2021/05/22 13:37:20;;;;;;;;;0.20;0.20;;;;;;;;5062390;28;9664;-74
2021/05/22 13:39:49;;;;;;;;;4.75;4.75;;;;;;;;5062712;28;8868;-73
2021/05/22 13:42:17;;;;;;;;;8.00;8.00;;;;;;;;5063251;28;8849;-74
2021/05/22 13:44:44;;;;;;;;;0.00;0.00;;;;;;;;5063740;28;8842;-73
2021/05/22 13:47:11;;;;;;;;;0.80;0.80;;;;;;;;5035795;28;8946;-74
2021/05/22 13:49:38;;;;;;;;;0.75;0.75;;;;;;;;5064385;28;8920;-73
2021/05/22 13:52:05;;;;;;;;;0.00;0.00;;;;;;;;5061667;28;8866;-73
2021/05/22 13:54:32;;;;;;;;;0.00;0.00;;;;;;;;5062291;28;8976;-73
2021/05/22 13:57:01;;;;;;;;;0.00;0.00;;;;;;;;5061645;28;8894;-75
2021/05/22 13:59:27;;;;;;;;;0.00;0.00;;;;;;;;5048938;28;8846;-73
2021/05/22 14:01:54;;;;;;;;;0.50;0.50;;;;;;;;5055559;28;9699;-74
2021/05/22 14:04:21;;;;;;;;;0.00;0.00;;;;;;;;5063200;28;8866;-75
2021/05/22 14:06:48;;;;;;;;;1.00;0.00;;;;;;;;5063901;28;8873;-73
2021/05/22 14:09:15;;;;;;;;;0.25;0.00;;;;;;;;5045021;28;8956;-75
2021/05/22 14:11:42;;;;;;;;;1.00;0.00;;;;;;;;5064085;28;8864;-74
2021/05/22 14:14:10;;;;;;;;;0.00;0.00;;;;;;;;5067133;28;8850;-73
2021/05/22 14:16:38;;;;;;;;;0.00;0.00;;;;;;;;5045330;28;8849;-74
2021/05/22 14:19:05;;;;;;;;;1.50;0.00;;;;;;;;5046531;28;8918;-76
2021/05/22 14:21:32;;;;;;;;;0.00;0.00;;;;;;;;5065102;28;8964;-74
2021/05/22 14:23:59;;;;;;;;;0.00;0.00;;;;;;;;5063622;28;8850;-73
2021/05/22 14:26:26;;;;;;;;;2.00;0.00;;;;;;;;5065606;28;10045;-74
2021/05/22 14:28:53;;;;;;;;;4.00;0.50;;;;;;;;5064507;28;8956;-72
2021/05/22 14:31:21;;;;;;;;;0.75;0.75;;;;;;;;5043058;28;8822;-73
2021/05/22 14:33:48;;;;;;;;;0.00;0.00;;;;;;;;5064406;28;8873;-73
2021/05/22 14:36:15;;;;;;;;;0.25;0.25;;;;;;;;5044213;28;8870;-73
2021/05/22 14:38:42;;;;;;;;;0.00;0.00;;;;;;;;5062579;28;8881;-74
2021/05/22 14:41:09;;;;;;;;;1.00;1.00;;;;;;;;5061217;28;8862;-75
2021/05/22 14:43:36;;;;;;;;;3.00;0.00;;;;;;;;5060807;28;9004;-75
2021/05/22 14:46:06;;;;;;;;;0.00;0.00;;;;;;;;5046474;28;8850;-75
2021/05/22 14:48:34;;;;;;;;;0.80;0.80;;;;;;;;5062980;28;8874;-74
2021/05/22 14:51:01;;;;;;;;;1.00;1.00;;;;;;;;5063330;28;8881;-75
2021/05/22 14:53:28;;;;;;;;;0.00;0.00;;;;;;;;5060030;28;8862;-74
2021/05/22 14:55:56;;;;;;;;;0.00;0.00;;;;;;;;5061713;28;9009;-75
2021/05/22 14:58:22;;;;;;;;;1.50;1.00;;;;;;;;5055666;28;8844;-75
2021/05/22 15:00:49;;;;;;;;;0.50;0.50;;;;;;;;5061002;28;8816;-76
2021/05/22 15:03:16;;;;;;;;;0.25;0.25;;;;;;;;5061958;28;8837;-75